AirNav   Bose Proflight aviation headeet
 
 980 users online  

W52 Goheen Airport
Battle Ground, Washington, USA

GOING TO BATTLE GROUND?


FAA INFORMATION EFFECTIVE 03 JANUARY 2019

Location

FAA Identifier: W52
Lat/Long: 45-49-36.4670N / 122-34-36.6820W
45-49.607783N / 122-34.611367W
45.8267964 / -122.5768561
(estimated)
Elevation: 292 ft. / 89 m (estimated)
Variation: 20E (1985)
From city: 3 miles NW of BATTLE GROUND, WA
Time zone: UTC -8 (UTC -7 during Daylight Saving Time)
Zip code: 98604

Airport Operations

Airport use: Open to the public
Activation date: 02/1971
Control tower: no
ARTCC: SEATTLE CENTER
FSS: SEATTLE FLIGHT SERVICE STATION
NOTAMs facility: SEA (NOTAM-D service available)
Attendance: CONTINUOUS
OWNER LIVES ON ARPT.
Wind indicator: yes
Segmented circle: no
Lights: ACTVT LIRL RY 15/33 - CTAF.

Airport Communications

CTAF: 122.9
WX ASOS at SPB (12 nm W): 135.875 (503-543-6401)
WX ASOS at VUO (13 nm S): 135.125 (360-696-1280)
WX ASOS at PDX (14 nm S): PHONE (503) 493-7687
WX ASOS at TTD (18 nm SE): 135.625 (503-492-2887)

Nearby radio navigation aids

VOR radial/distance  VOR name  Freq  Var
BTGr346/4.8BATTLE GROUND VORTAC116.6021E
UBGr010/33.0NEWBERG VOR/DME117.4021E

 
NDB name  Hdg/Dist  Freq  Var  ID
BANKS043/22.935616EPND .--. -. -..
KELSO128/24.225617ELSO .-.. ... ---

Airport Services

Parking: tiedowns
Airframe service: MAJOR
Powerplant service: MAJOR
Bulk oxygen: NONE

Runway Information

Runway 15/33

Dimensions: 2565 x 50 ft. / 782 x 15 m
WIDTH OF 43' OVER CULVERT IN CENTER OF FIELD.
Surface: turf, in good condition
SFC UNEVEN WITH AN INCLINE.
Runway edge lights: low intensity
RUNWAY 15  RUNWAY 33
Latitude: 45-49.853517N45-49.446333N
Longitude: 122-34.721833W122-34.563050W
Gradient: 0.5%0.5%
Traffic pattern: leftleft
Visual slope indicator: non-standard VASI system
HAS NSTD SINGLE LIGHT VASI BOTH SIDES OF RY.
Obstructions: 128 ft. trees, 770 ft. from runway, 6:1 slope to clear35 ft. pline, lighted, 157 ft. from runway, 46 ft. left of centerline, 4:1 slope to clear

Runway 7/25

Dimensions: 1500 x 48 ft. / 457 x 15 m
Surface: turf, in good condition
RUNWAY 7  RUNWAY 25
Traffic pattern: leftleft
Obstructions: 20 ft. bldg, 60 ft. from runway, 80 ft. both sides of centerline, 3:1 slope to clear
3 MARKER BALLS ON 45 FT POWER LINE 250 FT FROM RWY END.
66 ft. tree, 581 ft. from runway, 8:1 slope to clear

Airport Ownership and Management from official FAA records

Ownership: Privately-owned
Owner: GORDON GOHEEN
9304 NE 279 ST
BATTLE GROUND, WA 98604
Phone 360-687-3038
Manager: MARK SWONGER
9304 NE 279TH ST
BATTLE GROUND, WA 98604
Phone 360-687-3038

Airport Operational Statistics

Aircraft based on the field: 43
Single engine airplanes: 35
Multi engine airplanes: 6
Helicopters: 1
Ultralights: 1
    
Aircraft operations: avg 66/week *
83% local general aviation
17% transient general aviation
* for 12-month period ending 31 December 2016

Additional Remarks

RY 07/25 FOR EMERGENCY USE ONLY.
HANGAR N SIDE SFC 8 FT FM EDGE OF RY 25.
RWY 25 6 FT FENCE, 16 FT FROM RWY END.
FOR CD CTC P80 APCH AT 503-493-7545.

Instrument Procedures

There are no published instrument procedures at W52.

Some nearby airports with instrument procedures:

KSPB - Scappoose Industrial Airpark (12 nm W)
KVUO - Pearson Field Airport (13 nm S)
KPDX - Portland International Airport (14 nm S)
KTTD - Portland-Troutdale Airport (18 nm SE)
KKLS - Southwest Washington Regional Airport (22 nm NW)
 
Loc | Ops | Rwys | IFR | FBO | Links
Com | Nav | Svcs | Stats | Notes
Area around W52 (Goheen Airport)
 
Road maps at: MapQuest Bing Google
 
Aerial photo
WARNING: Photo may not be current or correct
Aerial photo of W52 (Goheen Airport)
Do you have a better or more recent aerial photo of Goheen Airport that you would like to share? If so, please send us your photo.

 
Sectional chart

 
Airport distance calculator
Flying to Goheen Airport? Find the distance to fly.

From to W52

Sunrise and sunset
Times for 21-Jan-2019
 Local
(UTC-8)
 Zulu
(UTC)
Morning civil twilight07:1215:12
Sunrise07:4415:44
Sunset16:5900:59
Evening civil twilight17:3201:32

Current date and time
Zulu (UTC)  22-Jan-2019 01:38:36
Local (UTC-8)  21-Jan-2019 17:38:36
 
METAR
KSPB 
13nm W 
220053Z AUTO 00000KT 6SM BR FEW038 SCT050 06/04 A3042 RMK AO2 SLP301 T00610039
KVUO 
13nm S 
220053Z AUTO 11004KT 10SM -RA FEW020 BKN033 OVC048 08/05 A3043 RMK AO2 RAB47 SLP303 P0000 T00830050
KPDX 
15nm S 
220053Z 13003KT 10SM FEW020 BKN037 BKN044 08/04 A3043 RMK AO2 SLP305 T00830044 $
KTTD 
18nm S 
220100Z VRB03KT 10SM SCT024 BKN041 BKN055 07/04 A3043 RMK AO2 T00720039
KKLS 
22nm NW 
220056Z AUTO 14008KT 10SM CLR 06/04 A3043 RMK AO2 RAB19E31 SLP308 P0000 T00610039
KHIO 
23nm SW 
220053Z 00000KT 10SM FEW020 SCT035 BKN050 08/04 A3041 RMK AO2 SLP300 T00780044 $
TAF
KPDX 
15nm S 
212013Z 2120/2218 08006KT P6SM FEW012 BKN060 FM212100 23004KT P6SM SCT020 FM220600 15004KT P6SM OVC035 FM221200 12012KT P6SM -RA SCT030 OVC050
KTTD 
18nm S 
212013Z 2120/2218 08003KT P6SM BKN016 OVC060 FM212200 VRB03KT P6SM BKN035 FM220700 VRB03KT P6SM OVC050 FM221200 12012KT P6SM -RA SCT030 OVC050
NOTAMs
Click for the latest NOTAMs
NOTAMs are issued by the DoD/FAA and will open in a separate window not controlled by AirNav.

 

 
 

Would you like to see your business listed on this page?

 If your business provides an interesting product or service to pilots, flight crews, aircraft, or users of the Goheen Airport, you should consider listing it here.  To start the listing process, click on the button below
 
Add a business
 

Other Pages about Goheen Airport

Update a link
 
Copyright © AirNav, LLC. All rights reserved. Privacy Policy  Contact